PWSweather.com
Personal Weather Stations
Station Observations
PHMDWX
Perry Hall, MD 21236

Perry Hall, MD 21236

Lat: 39.418318, Lon: -76.490039

Elevation: 305

Station Type: Davis Vantage Pro

www.phmdwx.net

High Low Average
Temperature 43.3°F6.3°C 25.6°F-3.6°C 34.5°F1.4°C
Dew Point 25.9°F-3.4°C 13.1°F-10.5°C 17.1°F-8.3°C
Winds 5.5 mph 8.9 kmh Calm Calm 2.0 mph SW3.2 kmh SW
Wind Gusts 11.0 mph17.7 kmh -- 5.0 mph8.0 kmh
Humidity 65% 35% 49%
Pressure 30.66 in1038.3 mb 30.43 in1030.5 mb -
Precipitation 0.00 in0.0 mm - -
Hour Temp Dew Point Humidity Winds Wind Gusts Pressure Precip Precip Rate Daily Precip Total
12:00 AM 31.0°F-0.6°C 14.0°F-10.0°C 49% 3.2 mph NW5.1 kmh NW 5.0 mph8.0 kmh 30.43 in1030.5 mb 0.00 in0.0 mm 0.00 in/hr0.0 mm/hr 0.00 in0.0 mm
12:30 AM 30.1°F-1.1°C 14.5°F-9.7°C 52% 3.1 mph NW5.0 kmh NW 4.0 mph6.4 kmh 30.44 in1030.8 mb 0.00 in0.0 mm 0.00 in/hr0.0 mm/hr 0.00 in0.0 mm
01:00 AM 29.8°F-1.2°C 15.1°F-9.4°C 54% 5.1 mph N8.2 kmh N 10.0 mph16.1 kmh 30.45 in1031.2 mb 0.00 in0.0 mm 0.00 in/hr0.0 mm/hr 0.00 in0.0 mm
01:30 AM 29.4°F-1.4°C 14.4°F-9.8°C 53% 4.9 mph NW7.9 kmh NW 7.0 mph11.3 kmh 30.48 in1032.2 mb 0.00 in0.0 mm 0.00 in/hr0.0 mm/hr 0.00 in0.0 mm
02:00 AM 29.5°F-1.4°C 13.6°F-10.2°C 51% 2.9 mph WNW4.7 kmh WNW 5.0 mph8.0 kmh 30.49 in1032.5 mb 0.00 in0.0 mm 0.00 in/hr0.0 mm/hr 0.00 in0.0 mm
02:30 AM 29.1°F-1.6°C 13.2°F-10.4°C 51% 2.3 mph NNW3.7 kmh NNW 6.0 mph9.7 kmh 30.49 in1032.5 mb 0.00 in0.0 mm 0.00 in/hr0.0 mm/hr 0.00 in0.0 mm
03:00 AM 28.7°F-1.8°C 13.3°F-10.4°C 52% 2.1 mph NW3.4 kmh NW 3.0 mph4.8 kmh 30.50 in1032.8 mb 0.00 in0.0 mm 0.00 in/hr0.0 mm/hr 0.00 in0.0 mm
03:30 AM 27.9°F-2.3°C 13.4°F-10.3°C 54% 1.4 mph NW2.3 kmh NW 2.0 mph3.2 kmh 30.51 in1033.2 mb 0.00 in0.0 mm 0.00 in/hr0.0 mm/hr 0.00 in0.0 mm
04:00 AM 27.2°F-2.7°C 13.9°F-10.1°C 57% 1.6 mph NW2.6 kmh NW 2.0 mph3.2 kmh 30.53 in1033.9 mb 0.00 in0.0 mm 0.00 in/hr0.0 mm/hr 0.00 in0.0 mm
04:30 AM 26.9°F-2.8°C 14.1°F-9.9°C 58% 1.0 mph NNW1.6 kmh NNW 3.0 mph4.8 kmh 30.54 in1034.2 mb 0.00 in0.0 mm 0.00 in/hr0.0 mm/hr 0.00 in0.0 mm
05:00 AM 27.2°F-2.7°C 13.1°F-10.5°C 55% 2.8 mph NW4.5 kmh NW 6.0 mph9.7 kmh 30.57 in1035.2 mb 0.00 in0.0 mm 0.00 in/hr0.0 mm/hr 0.00 in0.0 mm
05:30 AM 26.9°F-2.8°C 13.3°F-10.4°C 56% 3.3 mph NW5.3 kmh NW 5.0 mph8.0 kmh 30.57 in1035.2 mb 0.00 in0.0 mm 0.00 in/hr0.0 mm/hr 0.00 in0.0 mm
06:00 AM 26.9°F-2.8°C 13.3°F-10.4°C 56% 3.2 mph W5.1 kmh W 5.0 mph8.0 kmh 30.59 in1035.9 mb 0.00 in0.0 mm 0.00 in/hr0.0 mm/hr 0.00 in0.0 mm
06:30 AM 26.6°F-3.0°C 13.8°F-10.1°C 58% Calm Calm -- 30.60 in1036.2 mb 0.00 in0.0 mm 0.00 in/hr0.0 mm/hr 0.00 in0.0 mm
07:00 AM 25.6°F-3.6°C 14.7°F-9.6°C 63% Calm Calm -- 30.61 in1036.6 mb 0.00 in0.0 mm 0.00 in/hr0.0 mm/hr 0.00 in0.0 mm
07:30 AM 26.1°F-3.3°C 15.9°F-8.9°C 65% Calm Calm -- 30.62 in1036.9 mb 0.00 in0.0 mm 0.00 in/hr0.0 mm/hr 0.00 in0.0 mm
08:00 AM 29.1°F-1.6°C 15.3°F-9.3°C 56% 0.1 mph WNW0.2 kmh WNW -- 30.65 in1037.9 mb 0.00 in0.0 mm 0.00 in/hr0.0 mm/hr 0.00 in0.0 mm
08:30 AM 30.7°F-0.7°C 15.1°F-9.4°C 52% 0.2 mph WNW0.3 kmh WNW 1.0 mph1.6 kmh 30.66 in1038.3 mb 0.00 in0.0 mm 0.00 in/hr0.0 mm/hr 0.00 in0.0 mm
09:00 AM 32.6°F0.3°C 15.6°F-9.1°C 49% 1.0 mph WNW1.6 kmh WNW 4.0 mph6.4 kmh 30.66 in1038.3 mb 0.00 in0.0 mm 0.00 in/hr0.0 mm/hr 0.00 in0.0 mm
09:30 AM 34.0°F1.1°C 15.8°F-9.0°C 47% 4.5 mph W7.2 kmh W 7.0 mph11.3 kmh 30.66 in1038.3 mb 0.00 in0.0 mm 0.00 in/hr0.0 mm/hr 0.00 in0.0 mm
10:00 AM 35.9°F2.2°C 15.5°F-9.2°C 43% 2.7 mph NW4.3 kmh NW 5.0 mph8.0 kmh 30.66 in1038.3 mb 0.00 in0.0 mm 0.00 in/hr0.0 mm/hr 0.00 in0.0 mm
10:30 AM 38.0°F3.3°C 16.4°F-8.7°C 41% 2.4 mph W3.9 kmh W 5.0 mph8.0 kmh 30.66 in1038.3 mb 0.00 in0.0 mm 0.00 in/hr0.0 mm/hr 0.00 in0.0 mm
11:00 AM 40.2°F4.6°C 16.6°F-8.6°C 38% 1.0 mph NE1.6 kmh NE 4.0 mph6.4 kmh 30.64 in1037.6 mb 0.00 in0.0 mm 0.00 in/hr0.0 mm/hr 0.00 in0.0 mm
11:30 AM 41.2°F5.1°C 15.6°F-9.1°C 35% 0.4 mph S0.6 kmh S 2.0 mph3.2 kmh 30.64 in1037.6 mb 0.00 in0.0 mm 0.00 in/hr0.0 mm/hr 0.00 in0.0 mm
12:00 PM 40.9°F4.9°C 16.6°F-8.6°C 37% 2.5 mph SW4.0 kmh SW 6.0 mph9.7 kmh 30.63 in1037.3 mb 0.00 in0.0 mm 0.00 in/hr0.0 mm/hr 0.00 in0.0 mm
12:30 PM 41.9°F5.5°C 16.9°F-8.4°C 36% 1.9 mph E3.1 kmh E 7.0 mph11.3 kmh 30.61 in1036.6 mb 0.00 in0.0 mm 0.00 in/hr0.0 mm/hr 0.00 in0.0 mm
01:00 PM 42.8°F6.0°C 18.3°F-7.6°C 37% 3.2 mph SE5.1 kmh SE 5.0 mph8.0 kmh 30.60 in1036.2 mb 0.00 in0.0 mm 0.00 in/hr0.0 mm/hr 0.00 in0.0 mm
01:30 PM 43.3°F6.3°C 18.7°F-7.4°C 37% 2.1 mph SSE3.4 kmh SSE 11.0 mph17.7 kmh 30.58 in1035.6 mb 0.00 in0.0 mm 0.00 in/hr0.0 mm/hr 0.00 in0.0 mm
02:00 PM 42.2°F5.7°C 20.7°F-6.3°C 42% 3.5 mph S5.6 kmh S 7.0 mph11.3 kmh 30.57 in1035.2 mb 0.00 in0.0 mm 0.00 in/hr0.0 mm/hr 0.00 in0.0 mm
02:30 PM 42.6°F5.9°C 20.5°F-6.4°C 41% 2.0 mph SE3.2 kmh SE 4.0 mph6.4 kmh 30.57 in1035.2 mb 0.00 in0.0 mm 0.00 in/hr0.0 mm/hr 0.00 in0.0 mm
03:00 PM 41.3°F5.2°C 21.5°F-5.8°C 45% 5.4 mph SE8.7 kmh SE 10.0 mph16.1 kmh 30.57 in1035.2 mb 0.00 in0.0 mm 0.00 in/hr0.0 mm/hr 0.00 in0.0 mm
03:30 PM 42.2°F5.7°C 22.4°F-5.3°C 45% 3.7 mph SE6.0 kmh SE 9.0 mph14.5 kmh 30.57 in1035.2 mb 0.00 in0.0 mm 0.00 in/hr0.0 mm/hr 0.00 in0.0 mm
04:00 PM 42.2°F5.7°C 22.4°F-5.3°C 45% 5.5 mph SE8.9 kmh SE 9.0 mph14.5 kmh 30.56 in1034.9 mb 0.00 in0.0 mm 0.00 in/hr0.0 mm/hr 0.00 in0.0 mm
04:30 PM 41.5°F5.3°C 23.7°F-4.6°C 49% 4.8 mph SE7.7 kmh SE 8.0 mph12.9 kmh 30.56 in1034.9 mb 0.00 in0.0 mm 0.00 in/hr0.0 mm/hr 0.00 in0.0 mm
05:00 PM 40.9°F4.9°C 22.7°F-5.2°C 48% 2.5 mph SE4.0 kmh SE 7.0 mph11.3 kmh 30.56 in1034.9 mb 0.00 in0.0 mm 0.00 in/hr0.0 mm/hr 0.00 in0.0 mm
05:30 PM 40.6°F4.8°C 23.4°F-4.8°C 50% 1.8 mph SE2.9 kmh SE 4.0 mph6.4 kmh 30.57 in1035.2 mb 0.00 in0.0 mm 0.00 in/hr0.0 mm/hr 0.00 in0.0 mm
06:00 PM 40.1°F4.5°C 24.8°F-4.0°C 54% 1.0 mph SE1.6 kmh SE 2.0 mph3.2 kmh 30.56 in1034.9 mb 0.00 in0.0 mm 0.00 in/hr0.0 mm/hr 0.00 in0.0 mm
06:30 PM 39.5°F4.2°C 25.9°F-3.4°C 58% 2.6 mph SE4.2 kmh SE 6.0 mph9.7 kmh 30.56 in1034.9 mb 0.00 in0.0 mm 0.00 in/hr0.0 mm/hr 0.00 in0.0 mm
07:00 PM 39.2°F4.0°C 26.5°F-3.1°C 60% 2.5 mph SE4.0 kmh SE 5.0 mph8.0 kmh 30.57 in1035.2 mb 0.00 in0.0 mm 0.00 in/hr0.0 mm/hr 0.00 in0.0 mm
07:30 PM 38.9°F3.8°C 27.4°F-2.6°C 63% 1.1 mph SE1.8 kmh SE 3.0 mph4.8 kmh 30.57 in1035.2 mb 0.00 in0.0 mm 0.00 in/hr0.0 mm/hr 0.00 in0.0 mm
08:00 PM 38.5°F3.6°C 28.9°F-1.7°C 68% 1.0 mph SSE1.6 kmh SSE 2.0 mph3.2 kmh 30.57 in1035.2 mb 0.00 in0.0 mm 0.00 in/hr0.0 mm/hr 0.00 in0.0 mm
08:30 PM 37.9°F3.3°C 29.3°F-1.5°C 71% 0.4 mph SE0.6 kmh SE 2.0 mph3.2 kmh 30.57 in1035.2 mb 0.00 in0.0 mm 0.00 in/hr0.0 mm/hr 0.00 in0.0 mm
09:00 PM 37.9°F3.3°C 29.7°F-1.3°C 72% 1.6 mph SE2.6 kmh SE 3.0 mph4.8 kmh 30.58 in1035.6 mb 0.00 in0.0 mm 0.00 in/hr0.0 mm/hr 0.00 in0.0 mm
09:30 PM 37.5°F3.1°C 30.0°F-1.1°C 74% Calm Calm -- 30.58 in1035.6 mb 0.00 in0.0 mm 0.00 in/hr0.0 mm/hr 0.00 in0.0 mm
10:00 PM 36.9°F2.7°C 30.4°F-0.9°C 77% 0.1 mph SE0.2 kmh SE 1.0 mph1.6 kmh 30.57 in1035.2 mb 0.00 in0.0 mm 0.00 in/hr0.0 mm/hr 0.00 in0.0 mm
10:30 PM 36.3°F2.4°C 30.7°F-0.7°C 80% Calm Calm 2.0 mph3.2 kmh 30.57 in1035.2 mb 0.00 in0.0 mm 0.00 in/hr0.0 mm/hr 0.00 in0.0 mm
11:00 PM 35.9°F2.2°C 31.2°F-0.4°C 83% Calm Calm -- 30.57 in1035.2 mb 0.00 in0.0 mm 0.00 in/hr0.0 mm/hr 0.00 in0.0 mm
11:30 PM 35.5°F1.9°C 31.1°F-0.5°C 84% Calm Calm -- 30.57 in1035.2 mb 0.00 in0.0 mm 0.00 in/hr0.0 mm/hr 0.00 in0.0 mm